sensor_id;sensor_type;location;lat;lon;timestamp;P1;durP1;ratioP1;P2;durP2;ratioP2
46755;SDS011;32506;52.826;-1.192;2022-12-07T00:01:11;4.90;;;1.73;;
46755;SDS011;32506;52.826;-1.192;2022-12-07T00:03:39;4.22;;;2.28;;
46755;SDS011;32506;52.826;-1.192;2022-12-07T00:06:06;3.47;;;1.63;;
46755;SDS011;32506;52.826;-1.192;2022-12-07T00:08:34;5.18;;;2.20;;
46755;SDS011;32506;52.826;-1.192;2022-12-07T00:11:03;4.25;;;2.25;;
46755;SDS011;32506;52.826;-1.192;2022-12-07T00:13:56;3.90;;;1.90;;
46755;SDS011;32506;52.826;-1.192;2022-12-07T00:16:24;4.70;;;1.98;;
46755;SDS011;32506;52.826;-1.192;2022-12-07T00:18:52;4.22;;;2.25;;
46755;SDS011;32506;52.826;-1.192;2022-12-07T00:21:19;3.95;;;2.35;;
46755;SDS011;32506;52.826;-1.192;2022-12-07T00:23:47;4.13;;;1.90;;
46755;SDS011;32506;52.826;-1.192;2022-12-07T00:26:28;4.38;;;1.90;;
46755;SDS011;32506;52.826;-1.192;2022-12-07T00:28:59;7.47;;;2.30;;
46755;SDS011;32506;52.826;-1.192;2022-12-07T00:31:32;5.50;;;2.15;;
46755;SDS011;32506;52.826;-1.192;2022-12-07T00:34:00;3.45;;;1.60;;
46755;SDS011;32506;52.826;-1.192;2022-12-07T00:36:26;3.40;;;2.03;;
46755;SDS011;32506;52.826;-1.192;2022-12-07T00:38:52;3.95;;;1.70;;
46755;SDS011;32506;52.826;-1.192;2022-12-07T00:41:19;4.80;;;2.10;;
46755;SDS011;32506;52.826;-1.192;2022-12-07T00:43:47;3.50;;;1.73;;
46755;SDS011;32506;52.826;-1.192;2022-12-07T00:46:13;4.82;;;1.90;;
46755;SDS011;32506;52.826;-1.192;2022-12-07T00:48:40;3.10;;;1.63;;
46755;SDS011;32506;52.826;-1.192;2022-12-07T00:51:06;5.72;;;1.92;;
46755;SDS011;32506;52.826;-1.192;2022-12-07T00:53:35;4.88;;;2.53;;
46755;SDS011;32506;52.826;-1.192;2022-12-07T00:56:04;5.47;;;1.70;;
46755;SDS011;32506;52.826;-1.192;2022-12-07T00:58:57;4.00;;;1.77;;
46755;SDS011;32506;52.826;-1.192;2022-12-07T01:01:27;4.25;;;1.63;;
46755;SDS011;32506;52.826;-1.192;2022-12-07T01:03:55;3.95;;;1.80;;
46755;SDS011;32506;52.826;-1.192;2022-12-07T01:06:21;5.63;;;1.95;;
46755;SDS011;32506;52.826;-1.192;2022-12-07T01:08:48;2.90;;;1.40;;
46755;SDS011;32506;52.826;-1.192;2022-12-07T01:11:15;3.47;;;1.60;;
46755;SDS011;32506;52.826;-1.192;2022-12-07T01:13:42;3.53;;;2.05;;
46755;SDS011;32506;52.826;-1.192;2022-12-07T01:16:10;3.63;;;1.60;;
46755;SDS011;32506;52.826;-1.192;2022-12-07T01:18:37;5.63;;;1.65;;
46755;SDS011;32506;52.826;-1.192;2022-12-07T01:23:30;3.60;;;1.83;;
46755;SDS011;32506;52.826;-1.192;2022-12-07T01:25:57;3.85;;;1.58;;
46755;SDS011;32506;52.826;-1.192;2022-12-07T01:28:23;4.65;;;1.70;;
46755;SDS011;32506;52.826;-1.192;2022-12-07T01:30:59;5.80;;;2.03;;
46755;SDS011;32506;52.826;-1.192;2022-12-07T01:33:30;4.30;;;1.60;;
46755;SDS011;32506;52.826;-1.192;2022-12-07T01:36:08;3.63;;;1.65;;
46755;SDS011;32506;52.826;-1.192;2022-12-07T01:38:34;3.95;;;1.35;;
46755;SDS011;32506;52.826;-1.192;2022-12-07T01:40:59;2.55;;;1.20;;
46755;SDS011;32506;52.826;-1.192;2022-12-07T01:43:26;5.28;;;1.90;;
46755;SDS011;32506;52.826;-1.192;2022-12-07T01:45:54;4.18;;;1.27;;
46755;SDS011;32506;52.826;-1.192;2022-12-07T01:48:22;5.35;;;2.20;;
46755;SDS011;32506;52.826;-1.192;2022-12-07T01:50:51;5.57;;;1.77;;
46755;SDS011;32506;52.826;-1.192;2022-12-07T01:53:18;3.88;;;1.80;;
46755;SDS011;32506;52.826;-1.192;2022-12-07T01:55:45;2.75;;;1.42;;
46755;SDS011;32506;52.826;-1.192;2022-12-07T01:58:13;3.38;;;1.50;;
46755;SDS011;32506;52.826;-1.192;2022-12-07T02:00:39;6.28;;;1.77;;
46755;SDS011;32506;52.826;-1.192;2022-12-07T02:03:08;6.40;;;1.73;;
46755;SDS011;32506;52.826;-1.192;2022-12-07T02:05:38;4.80;;;1.88;;
46755;SDS011;32506;52.826;-1.192;2022-12-07T02:08:06;2.83;;;1.65;;
46755;SDS011;32506;52.826;-1.192;2022-12-07T02:10:33;3.50;;;1.85;;
46755;SDS011;32506;52.826;-1.192;2022-12-07T02:13:12;4.07;;;1.92;;
46755;SDS011;32506;52.826;-1.192;2022-12-07T02:21:33;6.78;;;2.35;;
46755;SDS011;32506;52.826;-1.192;2022-12-07T02:28:05;3.33;;;2.05;;
46755;SDS011;32506;52.826;-1.192;2022-12-07T02:30:06;3.38;;;1.80;;
46755;SDS011;32506;52.826;-1.192;2022-12-07T02:35:11;3.17;;;1.50;;
46755;SDS011;32506;52.826;-1.192;2022-12-07T02:42:46;4.55;;;1.60;;
46755;SDS011;32506;52.826;-1.192;2022-12-07T02:45:17;5.55;;;1.75;;
46755;SDS011;32506;52.826;-1.192;2022-12-07T02:47:51;3.90;;;1.50;;
46755;SDS011;32506;52.826;-1.192;2022-12-07T02:50:19;3.75;;;1.60;;
46755;SDS011;32506;52.826;-1.192;2022-12-07T02:52:46;3.85;;;1.42;;
46755;SDS011;32506;52.826;-1.192;2022-12-07T02:55:11;5.40;;;1.17;;
46755;SDS011;32506;52.826;-1.192;2022-12-07T03:01:02;3.50;;;2.03;;
46755;SDS011;32506;52.826;-1.192;2022-12-07T03:03:37;3.50;;;1.40;;
46755;SDS011;32506;52.826;-1.192;2022-12-07T03:06:16;4.13;;;2.08;;
46755;SDS011;32506;52.826;-1.192;2022-12-07T03:08:50;6.95;;;1.90;;
46755;SDS011;32506;52.826;-1.192;2022-12-07T03:11:33;4.72;;;2.03;;
46755;SDS011;32506;52.826;-1.192;2022-12-07T03:14:13;5.30;;;1.95;;
46755;SDS011;32506;52.826;-1.192;2022-12-07T03:16:42;3.58;;;1.67;;
46755;SDS011;32506;52.826;-1.192;2022-12-07T03:19:15;4.13;;;1.58;;
46755;SDS011;32506;52.826;-1.192;2022-12-07T03:21:47;4.55;;;1.83;;
46755;SDS011;32506;52.826;-1.192;2022-12-07T03:24:19;4.35;;;1.90;;
46755;SDS011;32506;52.826;-1.192;2022-12-07T03:26:49;3.72;;;1.70;;
46755;SDS011;32506;52.826;-1.192;2022-12-07T03:29:25;4.18;;;1.60;;
46755;SDS011;32506;52.826;-1.192;2022-12-07T03:31:59;5.75;;;2.15;;
46755;SDS011;32506;52.826;-1.192;2022-12-07T03:34:31;2.60;;;1.33;;
46755;SDS011;32506;52.826;-1.192;2022-12-07T03:37:06;3.50;;;1.52;;
46755;SDS011;32506;52.826;-1.192;2022-12-07T03:39:41;5.25;;;1.90;;
46755;SDS011;32506;52.826;-1.192;2022-12-07T03:42:14;3.70;;;1.92;;
46755;SDS011;32506;52.826;-1.192;2022-12-07T03:44:40;3.58;;;1.73;;
46755;SDS011;32506;52.826;-1.192;2022-12-07T03:52:56;3.90;;;1.55;;
46755;SDS011;32506;52.826;-1.192;2022-12-07T03:55:29;4.65;;;1.90;;
46755;SDS011;32506;52.826;-1.192;2022-12-07T03:57:59;5.75;;;1.90;;
46755;SDS011;32506;52.826;-1.192;2022-12-07T04:00:29;4.25;;;2.25;;
46755;SDS011;32506;52.826;-1.192;2022-12-07T04:02:55;4.35;;;1.83;;
46755;SDS011;32506;52.826;-1.192;2022-12-07T04:05:21;5.03;;;1.73;;
46755;SDS011;32506;52.826;-1.192;2022-12-07T04:07:47;3.55;;;1.63;;
46755;SDS011;32506;52.826;-1.192;2022-12-07T04:10:12;3.90;;;1.60;;
46755;SDS011;32506;52.826;-1.192;2022-12-07T04:12:38;4.03;;;1.50;;
46755;SDS011;32506;52.826;-1.192;2022-12-07T04:15:04;4.07;;;1.75;;
46755;SDS011;32506;52.826;-1.192;2022-12-07T04:17:30;4.63;;;1.67;;
46755;SDS011;32506;52.826;-1.192;2022-12-07T04:19:56;6.65;;;2.22;;
46755;SDS011;32506;52.826;-1.192;2022-12-07T04:22:21;3.42;;;1.50;;
46755;SDS011;32506;52.826;-1.192;2022-12-07T04:24:46;4.50;;;1.50;;
46755;SDS011;32506;52.826;-1.192;2022-12-07T04:27:12;4.50;;;1.65;;
46755;SDS011;32506;52.826;-1.192;2022-12-07T04:29:37;4.65;;;1.77;;
46755;SDS011;32506;52.826;-1.192;2022-12-07T04:32:03;3.90;;;1.65;;
46755;SDS011;32506;52.826;-1.192;2022-12-07T04:34:28;3.85;;;1.65;;
46755;SDS011;32506;52.826;-1.192;2022-12-07T04:36:54;3.72;;;1.63;;
46755;SDS011;32506;52.826;-1.192;2022-12-07T04:39:21;4.22;;;1.77;;
46755;SDS011;32506;52.826;-1.192;2022-12-07T04:44:18;3.78;;;1.42;;
46755;SDS011;32506;52.826;-1.192;2022-12-07T04:46:44;4.03;;;1.50;;
46755;SDS011;32506;52.826;-1.192;2022-12-07T04:49:10;2.53;;;1.40;;
46755;SDS011;32506;52.826;-1.192;2022-12-07T04:51:37;3.67;;;1.73;;
46755;SDS011;32506;52.826;-1.192;2022-12-07T04:54:02;4.47;;;1.75;;
46755;SDS011;32506;52.826;-1.192;2022-12-07T04:56:28;5.20;;;1.70;;
46755;SDS011;32506;52.826;-1.192;2022-12-07T04:58:54;5.03;;;1.75;;
46755;SDS011;32506;52.826;-1.192;2022-12-07T05:01:21;6.70;;;1.75;;
46755;SDS011;32506;52.826;-1.192;2022-12-07T05:03:47;3.90;;;1.70;;
46755;SDS011;32506;52.826;-1.192;2022-12-07T05:06:13;3.40;;;1.48;;
46755;SDS011;32506;52.826;-1.192;2022-12-07T05:08:38;6.15;;;1.85;;
46755;SDS011;32506;52.826;-1.192;2022-12-07T05:11:04;3.97;;;1.52;;
46755;SDS011;32506;52.826;-1.192;2022-12-07T05:13:30;3.13;;;1.60;;
46755;SDS011;32506;52.826;-1.192;2022-12-07T05:15:56;2.72;;;1.52;;
46755;SDS011;32506;52.826;-1.192;2022-12-07T05:18:22;3.47;;;1.70;;
46755;SDS011;32506;52.826;-1.192;2022-12-07T05:20:47;6.03;;;1.90;;
46755;SDS011;32506;52.826;-1.192;2022-12-07T05:23:13;3.78;;;1.70;;
46755;SDS011;32506;52.826;-1.192;2022-12-07T05:25:38;4.78;;;1.50;;
46755;SDS011;32506;52.826;-1.192;2022-12-07T05:28:04;4.13;;;1.88;;
46755;SDS011;32506;52.826;-1.192;2022-12-07T05:30:30;4.32;;;1.70;;
46755;SDS011;32506;52.826;-1.192;2022-12-07T05:32:56;3.40;;;1.70;;
46755;SDS011;32506;52.826;-1.192;2022-12-07T05:35:21;3.22;;;1.92;;
46755;SDS011;32506;52.826;-1.192;2022-12-07T05:37:47;2.90;;;1.40;;
46755;SDS011;32506;52.826;-1.192;2022-12-07T05:40:13;2.88;;;1.50;;
46755;SDS011;32506;52.826;-1.192;2022-12-07T05:42:39;4.25;;;1.48;;
46755;SDS011;32506;52.826;-1.192;2022-12-07T05:45:05;3.47;;;1.77;;
46755;SDS011;32506;52.826;-1.192;2022-12-07T05:47:31;2.85;;;1.50;;
46755;SDS011;32506;52.826;-1.192;2022-12-07T05:49:57;4.20;;;1.55;;
46755;SDS011;32506;52.826;-1.192;2022-12-07T05:52:22;4.15;;;1.92;;
46755;SDS011;32506;52.826;-1.192;2022-12-07T05:54:47;3.08;;;1.50;;
46755;SDS011;32506;52.826;-1.192;2022-12-07T05:57:13;3.85;;;1.58;;
46755;SDS011;32506;52.826;-1.192;2022-12-07T05:59:38;7.40;;;2.10;;
46755;SDS011;32506;52.826;-1.192;2022-12-07T06:02:11;2.83;;;1.80;;
46755;SDS011;32506;52.826;-1.192;2022-12-07T06:04:40;2.78;;;1.45;;
46755;SDS011;32506;52.826;-1.192;2022-12-07T06:07:10;3.35;;;1.67;;
46755;SDS011;32506;52.826;-1.192;2022-12-07T06:09:37;2.67;;;1.42;;
46755;SDS011;32506;52.826;-1.192;2022-12-07T06:12:03;2.47;;;1.50;;
46755;SDS011;32506;52.826;-1.192;2022-12-07T06:14:48;4.72;;;1.90;;
46755;SDS011;32506;52.826;-1.192;2022-12-07T06:17:13;3.65;;;1.77;;
46755;SDS011;32506;52.826;-1.192;2022-12-07T06:19:40;4.82;;;1.80;;
46755;SDS011;32506;52.826;-1.192;2022-12-07T06:22:05;3.55;;;1.60;;
46755;SDS011;32506;52.826;-1.192;2022-12-07T06:24:32;3.25;;;1.60;;
46755;SDS011;32506;52.826;-1.192;2022-12-07T06:26:58;2.70;;;1.60;;
46755;SDS011;32506;52.826;-1.192;2022-12-07T06:29:23;4.13;;;2.05;;
46755;SDS011;32506;52.826;-1.192;2022-12-07T06:31:49;3.00;;;1.38;;
46755;SDS011;32506;52.826;-1.192;2022-12-07T06:34:16;3.30;;;1.55;;
46755;SDS011;32506;52.826;-1.192;2022-12-07T06:36:43;4.22;;;1.63;;
46755;SDS011;32506;52.826;-1.192;2022-12-07T06:39:09;3.33;;;1.98;;
46755;SDS011;32506;52.826;-1.192;2022-12-07T06:41:36;3.45;;;1.63;;
46755;SDS011;32506;52.826;-1.192;2022-12-07T06:44:03;4.03;;;1.67;;
46755;SDS011;32506;52.826;-1.192;2022-12-07T06:46:29;4.07;;;1.67;;
46755;SDS011;32506;52.826;-1.192;2022-12-07T06:48:55;5.70;;;1.50;;
46755;SDS011;32506;52.826;-1.192;2022-12-07T06:51:20;5.15;;;1.88;;
46755;SDS011;32506;52.826;-1.192;2022-12-07T06:53:46;4.57;;;1.67;;
46755;SDS011;32506;52.826;-1.192;2022-12-07T06:56:12;3.47;;;1.80;;
46755;SDS011;32506;52.826;-1.192;2022-12-07T06:58:37;4.10;;;1.58;;
46755;SDS011;32506;52.826;-1.192;2022-12-07T07:01:08;5.20;;;2.17;;
46755;SDS011;32506;52.826;-1.192;2022-12-07T07:03:34;3.15;;;1.55;;
46755;SDS011;32506;52.826;-1.192;2022-12-07T07:05:59;3.25;;;1.40;;
46755;SDS011;32506;52.826;-1.192;2022-12-07T07:08:25;3.38;;;2.00;;
46755;SDS011;32506;52.826;-1.192;2022-12-07T07:10:50;3.92;;;1.73;;
46755;SDS011;32506;52.826;-1.192;2022-12-07T07:13:16;3.38;;;1.75;;
46755;SDS011;32506;52.826;-1.192;2022-12-07T07:15:41;3.83;;;2.05;;
46755;SDS011;32506;52.826;-1.192;2022-12-07T07:18:07;4.00;;;1.80;;
46755;SDS011;32506;52.826;-1.192;2022-12-07T07:20:32;3.55;;;1.80;;
46755;SDS011;32506;52.826;-1.192;2022-12-07T07:22:58;3.97;;;1.50;;
46755;SDS011;32506;52.826;-1.192;2022-12-07T07:25:23;3.67;;;1.85;;
46755;SDS011;32506;52.826;-1.192;2022-12-07T07:27:49;4.70;;;2.15;;
46755;SDS011;32506;52.826;-1.192;2022-12-07T07:30:14;2.38;;;1.45;;
46755;SDS011;32506;52.826;-1.192;2022-12-07T07:32:40;2.95;;;1.85;;
46755;SDS011;32506;52.826;-1.192;2022-12-07T07:35:05;3.65;;;1.80;;
46755;SDS011;32506;52.826;-1.192;2022-12-07T07:37:31;3.28;;;1.50;;
46755;SDS011;32506;52.826;-1.192;2022-12-07T07:39:56;2.97;;;1.90;;
46755;SDS011;32506;52.826;-1.192;2022-12-07T07:42:22;4.88;;;2.20;;
46755;SDS011;32506;52.826;-1.192;2022-12-07T07:44:47;2.40;;;1.35;;
46755;SDS011;32506;52.826;-1.192;2022-12-07T07:47:13;3.78;;;1.83;;
46755;SDS011;32506;52.826;-1.192;2022-12-07T07:49:38;4.72;;;1.73;;
46755;SDS011;32506;52.826;-1.192;2022-12-07T07:52:05;4.25;;;2.40;;
46755;SDS011;32506;52.826;-1.192;2022-12-07T07:54:31;3.90;;;1.95;;
46755;SDS011;32506;52.826;-1.192;2022-12-07T07:56:56;3.65;;;1.90;;
46755;SDS011;32506;52.826;-1.192;2022-12-07T07:59:22;3.42;;;2.00;;
46755;SDS011;32506;52.826;-1.192;2022-12-07T08:01:48;3.53;;;2.15;;
46755;SDS011;32506;52.826;-1.192;2022-12-07T08:04:13;4.30;;;1.92;;
46755;SDS011;32506;52.826;-1.192;2022-12-07T08:06:39;4.80;;;1.90;;
46755;SDS011;32506;52.826;-1.192;2022-12-07T08:09:07;3.08;;;1.52;;
46755;SDS011;32506;52.826;-1.192;2022-12-07T08:11:33;2.95;;;2.00;;
46755;SDS011;32506;52.826;-1.192;2022-12-07T08:13:58;5.32;;;1.85;;
46755;SDS011;32506;52.826;-1.192;2022-12-07T08:16:24;5.45;;;1.92;;
46755;SDS011;32506;52.826;-1.192;2022-12-07T08:18:49;4.70;;;1.92;;
46755;SDS011;32506;52.826;-1.192;2022-12-07T08:21:15;4.45;;;1.60;;
46755;SDS011;32506;52.826;-1.192;2022-12-07T08:23:40;4.07;;;1.83;;
46755;SDS011;32506;52.826;-1.192;2022-12-07T08:26:14;3.85;;;1.83;;
46755;SDS011;32506;52.826;-1.192;2022-12-07T08:28:40;3.88;;;1.98;;
46755;SDS011;32506;52.826;-1.192;2022-12-07T08:31:10;3.75;;;2.00;;
46755;SDS011;32506;52.826;-1.192;2022-12-07T08:33:37;4.43;;;2.30;;
46755;SDS011;32506;52.826;-1.192;2022-12-07T08:36:04;3.33;;;1.85;;
46755;SDS011;32506;52.826;-1.192;2022-12-07T08:38:35;4.00;;;2.05;;
46755;SDS011;32506;52.826;-1.192;2022-12-07T08:41:02;3.08;;;1.67;;
46755;SDS011;32506;52.826;-1.192;2022-12-07T08:43:28;3.63;;;1.73;;
46755;SDS011;32506;52.826;-1.192;2022-12-07T08:46:00;3.67;;;1.80;;
46755;SDS011;32506;52.826;-1.192;2022-12-07T08:48:29;4.75;;;2.17;;
46755;SDS011;32506;52.826;-1.192;2022-12-07T08:50:55;2.67;;;1.38;;
46755;SDS011;32506;52.826;-1.192;2022-12-07T08:53:20;3.28;;;1.90;;
46755;SDS011;32506;52.826;-1.192;2022-12-07T08:55:47;4.25;;;2.08;;
46755;SDS011;32506;52.826;-1.192;2022-12-07T08:58:13;2.40;;;1.58;;
46755;SDS011;32506;52.826;-1.192;2022-12-07T09:00:39;6.07;;;2.05;;
46755;SDS011;32506;52.826;-1.192;2022-12-07T09:03:04;4.00;;;2.00;;
46755;SDS011;32506;52.826;-1.192;2022-12-07T09:05:29;5.63;;;2.15;;
46755;SDS011;32506;52.826;-1.192;2022-12-07T09:07:57;3.78;;;1.55;;
46755;SDS011;32506;52.826;-1.192;2022-12-07T09:10:26;3.72;;;1.70;;
46755;SDS011;32506;52.826;-1.192;2022-12-07T09:12:53;4.13;;;1.67;;
46755;SDS011;32506;52.826;-1.192;2022-12-07T09:15:19;4.55;;;1.73;;
46755;SDS011;32506;52.826;-1.192;2022-12-07T09:17:44;2.97;;;1.90;;
46755;SDS011;32506;52.826;-1.192;2022-12-07T09:20:10;4.32;;;1.77;;
46755;SDS011;32506;52.826;-1.192;2022-12-07T09:22:36;4.55;;;1.80;;
46755;SDS011;32506;52.826;-1.192;2022-12-07T09:25:02;6.13;;;1.92;;
46755;SDS011;32506;52.826;-1.192;2022-12-07T09:27:28;3.05;;;1.50;;
46755;SDS011;32506;52.826;-1.192;2022-12-07T09:29:54;3.47;;;1.60;;
46755;SDS011;32506;52.826;-1.192;2022-12-07T09:32:20;2.72;;;1.38;;
46755;SDS011;32506;52.826;-1.192;2022-12-07T09:34:46;4.70;;;1.80;;
46755;SDS011;32506;52.826;-1.192;2022-12-07T09:37:11;3.30;;;1.63;;
46755;SDS011;32506;52.826;-1.192;2022-12-07T09:39:40;3.65;;;1.55;;
46755;SDS011;32506;52.826;-1.192;2022-12-07T09:42:06;2.60;;;1.50;;
46755;SDS011;32506;52.826;-1.192;2022-12-07T09:44:33;3.63;;;1.77;;
46755;SDS011;32506;52.826;-1.192;2022-12-07T09:47:00;3.78;;;1.60;;
46755;SDS011;32506;52.826;-1.192;2022-12-07T09:49:27;4.18;;;2.20;;
46755;SDS011;32506;52.826;-1.192;2022-12-07T09:54:45;4.10;;;2.45;;
46755;SDS011;32506;52.826;-1.192;2022-12-07T09:57:13;3.15;;;1.63;;
46755;SDS011;32506;52.826;-1.192;2022-12-07T09:59:39;3.72;;;1.92;;
46755;SDS011;32506;52.826;-1.192;2022-12-07T10:05:07;3.35;;;1.48;;
46755;SDS011;32506;52.826;-1.192;2022-12-07T10:07:37;4.57;;;1.77;;
46755;SDS011;32506;52.826;-1.192;2022-12-07T10:10:04;4.30;;;1.65;;
46755;SDS011;32506;52.826;-1.192;2022-12-07T10:15:36;3.50;;;1.38;;
46755;SDS011;32506;52.826;-1.192;2022-12-07T10:20:50;2.47;;;1.55;;
46755;SDS011;32506;52.826;-1.192;2022-12-07T10:23:28;3.83;;;1.42;;
46755;SDS011;32506;52.826;-1.192;2022-12-07T10:25:53;2.58;;;1.30;;
46755;SDS011;32506;52.826;-1.192;2022-12-07T10:28:20;3.90;;;1.58;;
46755;SDS011;32506;52.826;-1.192;2022-12-07T10:33:35;2.65;;;1.10;;
46755;SDS011;32506;52.826;-1.192;2022-12-07T10:36:22;3.83;;;1.50;;
46755;SDS011;32506;52.826;-1.192;2022-12-07T10:39:02;2.17;;;1.13;;
46755;SDS011;32506;52.826;-1.192;2022-12-07T10:41:28;4.40;;;1.75;;
46755;SDS011;32506;52.826;-1.192;2022-12-07T10:43:54;2.95;;;1.50;;
46755;SDS011;32506;52.826;-1.192;2022-12-07T10:51:45;3.47;;;1.58;;
46755;SDS011;32506;52.826;-1.192;2022-12-07T10:54:37;3.47;;;1.35;;
46755;SDS011;32506;52.826;-1.192;2022-12-07T10:59:55;4.20;;;1.83;;
46755;SDS011;32506;52.826;-1.192;2022-12-07T11:02:47;3.28;;;2.08;;
46755;SDS011;32506;52.826;-1.192;2022-12-07T11:08:19;5.00;;;2.20;;
46755;SDS011;32506;52.826;-1.192;2022-12-07T11:21:58;5.60;;;1.73;;
46755;SDS011;32506;52.826;-1.192;2022-12-07T11:24:54;3.67;;;1.80;;
46755;SDS011;32506;52.826;-1.192;2022-12-07T11:27:31;3.92;;;1.70;;
46755;SDS011;32506;52.826;-1.192;2022-12-07T11:30:18;4.83;;;1.80;;
46755;SDS011;32506;52.826;-1.192;2022-12-07T11:35:41;3.40;;;1.98;;
46755;SDS011;32506;52.826;-1.192;2022-12-07T11:38:10;4.38;;;1.70;;
46755;SDS011;32506;52.826;-1.192;2022-12-07T11:40:43;3.75;;;1.75;;
46755;SDS011;32506;52.826;-1.192;2022-12-07T11:43:24;3.10;;;1.73;;
46755;SDS011;32506;52.826;-1.192;2022-12-07T11:46:03;3.83;;;1.55;;
46755;SDS011;32506;52.826;-1.192;2022-12-07T11:48:35;5.32;;;2.30;;
46755;SDS011;32506;52.826;-1.192;2022-12-07T11:51:06;4.28;;;1.58;;
46755;SDS011;32506;52.826;-1.192;2022-12-07T11:53:46;3.63;;;1.80;;
46755;SDS011;32506;52.826;-1.192;2022-12-07T11:56:19;3.65;;;1.60;;
46755;SDS011;32506;52.826;-1.192;2022-12-07T12:01:26;3.08;;;1.42;;
46755;SDS011;32506;52.826;-1.192;2022-12-07T12:06:53;4.53;;;1.42;;
46755;SDS011;32506;52.826;-1.192;2022-12-07T12:09:20;4.63;;;1.92;;
46755;SDS011;32506;52.826;-1.192;2022-12-07T12:17:42;6.80;;;2.58;;
46755;SDS011;32506;52.826;-1.192;2022-12-07T12:26:01;3.17;;;1.17;;
46755;SDS011;32506;52.826;-1.192;2022-12-07T12:33:46;4.22;;;1.42;;
46755;SDS011;32506;52.826;-1.192;2022-12-07T12:51:48;4.03;;;1.63;;
46755;SDS011;32506;52.826;-1.192;2022-12-07T12:54:23;4.80;;;1.77;;
46755;SDS011;32506;52.826;-1.192;2022-12-07T12:57:04;4.57;;;2.00;;
46755;SDS011;32506;52.826;-1.192;2022-12-07T13:16:35;3.67;;;1.27;;
46755;SDS011;32506;52.826;-1.192;2022-12-07T13:18:40;3.30;;;1.63;;
46755;SDS011;32506;52.826;-1.192;2022-12-07T13:29:28;3.83;;;1.13;;
46755;SDS011;32506;52.826;-1.192;2022-12-07T13:34:31;2.90;;;1.15;;
46755;SDS011;32506;52.826;-1.192;2022-12-07T13:37:14;5.18;;;1.67;;
46755;SDS011;32506;52.826;-1.192;2022-12-07T13:39:47;4.75;;;1.50;;
46755;SDS011;32506;52.826;-1.192;2022-12-07T13:42:26;4.20;;;1.70;;
46755;SDS011;32506;52.826;-1.192;2022-12-07T13:44:51;3.30;;;1.33;;
46755;SDS011;32506;52.826;-1.192;2022-12-07T13:47:39;4.55;;;1.42;;
46755;SDS011;32506;52.826;-1.192;2022-12-07T13:50:30;5.30;;;1.60;;
46755;SDS011;32506;52.826;-1.192;2022-12-07T13:52:59;3.35;;;1.40;;
46755;SDS011;32506;52.826;-1.192;2022-12-07T13:55:26;4.30;;;1.40;;
46755;SDS011;32506;52.826;-1.192;2022-12-07T13:57:53;5.45;;;1.90;;
46755;SDS011;32506;52.826;-1.192;2022-12-07T14:00:20;4.40;;;1.40;;
46755;SDS011;32506;52.826;-1.192;2022-12-07T14:05:28;3.88;;;1.80;;
46755;SDS011;32506;52.826;-1.192;2022-12-07T14:07:55;5.50;;;1.50;;
46755;SDS011;32506;52.826;-1.192;2022-12-07T14:13:00;5.07;;;1.85;;
46755;SDS011;32506;52.826;-1.192;2022-12-07T14:15:28;3.58;;;1.40;;
46755;SDS011;32506;52.826;-1.192;2022-12-07T14:17:56;3.90;;;1.77;;
46755;SDS011;32506;52.826;-1.192;2022-12-07T14:22:55;3.30;;;1.50;;
46755;SDS011;32506;52.826;-1.192;2022-12-07T14:25:24;4.57;;;2.10;;
46755;SDS011;32506;52.826;-1.192;2022-12-07T14:30:18;5.88;;;2.40;;
46755;SDS011;32506;52.826;-1.192;2022-12-07T14:32:44;4.70;;;1.63;;
46755;SDS011;32506;52.826;-1.192;2022-12-07T14:35:14;4.80;;;2.03;;
46755;SDS011;32506;52.826;-1.192;2022-12-07T14:37:43;6.93;;;2.00;;
46755;SDS011;32506;52.826;-1.192;2022-12-07T14:40:17;4.65;;;2.08;;
46755;SDS011;32506;52.826;-1.192;2022-12-07T14:42:45;5.13;;;2.03;;
46755;SDS011;32506;52.826;-1.192;2022-12-07T14:45:14;4.45;;;2.10;;
46755;SDS011;32506;52.826;-1.192;2022-12-07T14:47:42;6.05;;;2.75;;
46755;SDS011;32506;52.826;-1.192;2022-12-07T14:50:10;4.43;;;2.20;;
46755;SDS011;32506;52.826;-1.192;2022-12-07T14:52:37;4.88;;;2.10;;
46755;SDS011;32506;52.826;-1.192;2022-12-07T14:55:04;7.75;;;2.30;;
46755;SDS011;32506;52.826;-1.192;2022-12-07T14:57:30;4.55;;;2.03;;
46755;SDS011;32506;52.826;-1.192;2022-12-07T14:59:55;5.68;;;2.10;;
46755;SDS011;32506;52.826;-1.192;2022-12-07T15:02:21;4.88;;;1.88;;
46755;SDS011;32506;52.826;-1.192;2022-12-07T15:04:46;4.13;;;2.40;;
46755;SDS011;32506;52.826;-1.192;2022-12-07T15:07:18;5.93;;;2.70;;
46755;SDS011;32506;52.826;-1.192;2022-12-07T15:09:45;6.75;;;2.47;;
46755;SDS011;32506;52.826;-1.192;2022-12-07T15:12:11;5.32;;;2.45;;
46755;SDS011;32506;52.826;-1.192;2022-12-07T15:14:36;5.72;;;3.42;;
46755;SDS011;32506;52.826;-1.192;2022-12-07T15:17:02;6.95;;;3.00;;
46755;SDS011;32506;52.826;-1.192;2022-12-07T15:19:28;5.97;;;2.92;;
46755;SDS011;32506;52.826;-1.192;2022-12-07T15:21:53;8.63;;;3.97;;
46755;SDS011;32506;52.826;-1.192;2022-12-07T15:24:19;6.93;;;2.63;;
46755;SDS011;32506;52.826;-1.192;2022-12-07T15:26:45;6.00;;;3.17;;
46755;SDS011;32506;52.826;-1.192;2022-12-07T15:29:11;7.22;;;3.38;;
46755;SDS011;32506;52.826;-1.192;2022-12-07T15:31:37;6.38;;;3.33;;
46755;SDS011;32506;52.826;-1.192;2022-12-07T15:34:03;6.72;;;3.38;;
46755;SDS011;32506;52.826;-1.192;2022-12-07T15:36:30;5.72;;;2.80;;
46755;SDS011;32506;52.826;-1.192;2022-12-07T15:38:56;6.15;;;3.17;;
46755;SDS011;32506;52.826;-1.192;2022-12-07T15:41:22;6.97;;;2.65;;
46755;SDS011;32506;52.826;-1.192;2022-12-07T15:43:48;6.78;;;3.35;;
46755;SDS011;32506;52.826;-1.192;2022-12-07T15:46:50;5.40;;;3.08;;
46755;SDS011;32506;52.826;-1.192;2022-12-07T15:49:17;7.85;;;2.78;;
46755;SDS011;32506;52.826;-1.192;2022-12-07T15:51:44;5.80;;;3.28;;
46755;SDS011;32506;52.826;-1.192;2022-12-07T15:54:11;8.02;;;3.45;;
46755;SDS011;32506;52.826;-1.192;2022-12-07T15:56:40;6.78;;;2.80;;
46755;SDS011;32506;52.826;-1.192;2022-12-07T15:59:06;5.40;;;2.53;;
46755;SDS011;32506;52.826;-1.192;2022-12-07T16:01:32;6.32;;;3.30;;
46755;SDS011;32506;52.826;-1.192;2022-12-07T16:03:57;6.22;;;2.95;;
46755;SDS011;32506;52.826;-1.192;2022-12-07T16:06:24;5.65;;;2.60;;
46755;SDS011;32506;52.826;-1.192;2022-12-07T16:08:50;6.57;;;3.03;;
46755;SDS011;32506;52.826;-1.192;2022-12-07T16:11:15;5.13;;;3.08;;
46755;SDS011;32506;52.826;-1.192;2022-12-07T16:13:41;7.07;;;3.53;;
46755;SDS011;32506;52.826;-1.192;2022-12-07T16:16:08;7.38;;;2.95;;
46755;SDS011;32506;52.826;-1.192;2022-12-07T16:18:37;6.88;;;3.10;;
46755;SDS011;32506;52.826;-1.192;2022-12-07T16:21:03;8.40;;;3.13;;
46755;SDS011;32506;52.826;-1.192;2022-12-07T16:23:29;6.57;;;3.03;;
46755;SDS011;32506;52.826;-1.192;2022-12-07T16:26:03;5.47;;;2.70;;
46755;SDS011;32506;52.826;-1.192;2022-12-07T16:28:30;5.43;;;2.95;;
46755;SDS011;32506;52.826;-1.192;2022-12-07T16:31:06;7.00;;;3.25;;
46755;SDS011;32506;52.826;-1.192;2022-12-07T16:33:34;7.20;;;3.05;;
46755;SDS011;32506;52.826;-1.192;2022-12-07T16:36:01;7.00;;;3.20;;
46755;SDS011;32506;52.826;-1.192;2022-12-07T16:38:27;7.18;;;2.85;;
46755;SDS011;32506;52.826;-1.192;2022-12-07T16:40:53;5.07;;;3.13;;
46755;SDS011;32506;52.826;-1.192;2022-12-07T16:43:19;5.03;;;2.70;;
46755;SDS011;32506;52.826;-1.192;2022-12-07T16:45:45;6.68;;;2.78;;
46755;SDS011;32506;52.826;-1.192;2022-12-07T16:48:12;6.53;;;2.80;;
46755;SDS011;32506;52.826;-1.192;2022-12-07T16:50:39;7.13;;;2.78;;
46755;SDS011;32506;52.826;-1.192;2022-12-07T16:53:06;3.90;;;2.13;;
46755;SDS011;32506;52.826;-1.192;2022-12-07T16:55:35;5.57;;;3.03;;
46755;SDS011;32506;52.826;-1.192;2022-12-07T16:58:05;6.28;;;3.00;;
46755;SDS011;32506;52.826;-1.192;2022-12-07T17:00:32;7.22;;;3.40;;
46755;SDS011;32506;52.826;-1.192;2022-12-07T17:02:57;5.75;;;2.78;;
46755;SDS011;32506;52.826;-1.192;2022-12-07T17:05:23;4.88;;;2.75;;
46755;SDS011;32506;52.826;-1.192;2022-12-07T17:07:49;6.15;;;2.70;;